Time;durP1;ratioP1;P1;durP2;ratioP2;P2;SDS_P1;SDS_P2;PMS_P1;PMS_P2;Temp;Humidity;BMP_temperature;BMP_pressure;BME280_temperature;BME280_humidity;BME280_pressure;Samples;Min_cycle;Max_cycle;Signal;HPM_P1;HPM_P2
2022/08/21 00:00:25;;;;;;;11.52;7.95;;;;;;;15.43;78.82;101530.16;5098654;28;20038;-87
2022/08/21 00:02:58;;;;;;;11.30;8.73;;;;;;;15.41;78.82;101535.59;5095456;28;20035;-89
2022/08/21 00:05:25;;;;;;;10.13;8.57;;;;;;;15.35;78.58;101530.63;5099912;28;20023;-87
2022/08/21 00:07:51;;;;;;;10.32;9.02;;;;;;;15.31;78.86;101530.91;5097622;28;20521;-87
2022/08/21 00:10:18;;;;;;;11.02;9.57;;;;;;;15.24;79.72;101527.72;5099975;28;20042;-88
2022/08/21 00:12:44;;;;;;;10.93;8.43;;;;;;;15.21;79.73;101525.19;5101234;28;20024;-87
2022/08/21 00:15:12;;;;;;;12.52;8.52;;;;;;;15.23;79.51;101526.00;5095915;28;20133;-87
2022/08/21 00:17:37;;;;;;;12.93;8.35;;;;;;;15.22;78.99;101526.09;5096365;28;20122;-87
2022/08/21 00:20:08;;;;;;;10.70;7.80;;;;;;;15.18;79.21;101520.91;5093480;28;20027;-87
2022/08/21 00:22:34;;;;;;;9.40;7.65;;;;;;;15.18;79.16;101523.59;5095965;28;20049;-87
2022/08/21 00:25:00;;;;;;;9.55;7.80;;;;;;;15.16;79.13;101517.44;5107031;27;20023;-86
2022/08/21 00:27:25;;;;;;;9.77;8.55;;;;;;;15.14;79.09;101518.50;5105020;28;20096;-88
2022/08/21 00:29:51;;;;;;;11.77;8.10;;;;;;;15.06;79.18;101505.53;5109193;28;20028;-87
2022/08/21 00:32:25;;;;;;;10.75;8.40;;;;;;;15.05;78.84;101510.97;5101924;28;20019;-87
2022/08/21 00:34:51;;;;;;;12.40;7.65;;;;;;;15.03;78.90;101507.53;5096097;28;20094;-88
2022/08/21 00:37:17;;;;;;;9.75;7.88;;;;;;;15.02;79.24;101522.75;5108878;28;20106;-87
2022/08/21 00:39:42;;;;;;;12.30;7.93;;;;;;;14.99;79.30;101508.66;5108474;28;20024;-87
2022/08/21 00:42:08;;;;;;;10.98;7.50;;;;;;;14.99;79.16;101508.66;5099011;28;20150;-88
2022/08/21 00:44:33;;;;;;;11.40;7.15;;;;;;;14.94;79.54;101500.91;5106777;28;20039;-87
2022/08/21 00:46:59;;;;;;;7.97;7.10;;;;;;;14.95;79.66;101500.78;5105216;28;20028;-88
2022/08/21 00:49:24;;;;;;;11.15;7.20;;;;;;;14.93;80.02;101501.84;5098109;28;20093;-88
2022/08/21 00:51:57;;;;;;;8.90;6.72;;;;;;;14.89;79.82;101508.34;5103393;28;20061;-88
2022/08/21 00:54:24;;;;;;;;;;;;;;;14.94;77.74;101508.94;5096917;28;20027;-87
2022/08/21 00:56:54;;;;;;;8.57;6.90;;;;;;;14.73;80.03;101499.47;5099388;28;20373;-87
2022/08/21 00:59:20;;;;;;;7.15;6.15;;;;;;;14.66;80.54;101497.13;5101937;28;20034;-88
2022/08/21 01:01:47;;;;;;;9.48;6.68;;;;;;;14.65;80.89;101500.78;5099874;28;20115;-88
2022/08/21 01:04:13;;;;;;;11.20;6.68;;;;;;;14.63;81.31;101505.38;5105831;28;20430;-88
2022/08/21 01:06:38;;;;;;;9.00;6.90;;;;;;;14.63;80.76;101508.03;5102405;28;20110;-88
2022/08/21 01:09:03;;;;;;;8.35;6.90;;;;;;;14.61;80.81;101509.94;5109398;28;20023;-87
2022/08/21 01:11:29;;;;;;;8.27;6.72;;;;;;;14.59;81.13;101505.59;5103212;28;20042;-88
2022/08/21 01:13:55;;;;;;;9.23;7.22;;;;;;;14.51;81.23;101508.75;5092770;28;20123;-87
2022/08/21 01:16:22;;;;;;;9.80;7.80;;;;;;;14.50;81.43;101498.09;5103170;28;20972;-87
2022/08/21 01:18:48;;;;;;;11.88;7.05;;;;;;;14.50;81.61;101509.66;5103406;28;20107;-87
2022/08/21 01:21:18;;;;;;;9.38;7.43;;;;;;;14.48;81.65;101502.66;5104755;28;20408;-87
2022/08/21 01:23:46;;;;;;;10.52;8.10;;;;;;;14.44;81.28;101502.81;5097145;28;20031;-87
2022/08/21 01:26:15;;;;;;;12.40;8.65;;;;;;;14.43;81.79;101494.88;5106813;28;20053;-87
2022/08/21 01:28:59;;;;;;;13.35;9.02;;;;;;;14.40;81.71;101487.00;5103023;28;20116;-87
2022/08/21 01:31:27;;;;;;;14.05;9.57;;;;;;;14.41;82.06;101505.66;5106177;28;20099;-86
2022/08/21 01:33:53;;;;;;;14.73;9.52;;;;;;;14.37;82.53;101492.53;5098679;28;20043;-88
2022/08/21 01:36:18;;;;;;;12.32;8.95;;;;;;;14.39;82.46;101496.88;5111784;28;20031;-88
2022/08/21 01:38:44;;;;;;;11.60;8.38;;;;;;;14.36;82.34;101497.03;5111228;28;20041;-88
2022/08/21 01:41:09;;;;;;;11.13;8.13;;;;;;;14.35;82.42;101498.00;5102735;28;20035;-87
2022/08/21 01:43:34;;;;;;;10.85;7.85;;;;;;;14.28;83.07;101480.53;5105248;28;20016;-87
2022/08/21 01:46:00;;;;;;;10.82;7.80;;;;;;;14.32;82.53;101495.47;5110798;28;20032;-88
2022/08/21 01:48:25;;;;;;;11.18;8.10;;;;;;;14.29;82.70;101486.75;5102290;28;20022;-89
2022/08/21 01:50:50;;;;;;;9.15;7.47;;;;;;;14.28;83.17;101491.25;5109587;28;20039;-88
2022/08/21 01:53:16;;;;;;;12.35;8.23;;;;;;;14.23;82.65;101490.63;5111131;28;20024;-88
2022/08/21 01:55:42;;;;;;;11.90;8.18;;;;;;;14.26;82.85;101501.19;5100568;28;20173;-87
2022/08/21 01:58:08;;;;;;;9.48;8.43;;;;;;;14.26;83.12;101500.31;5116767;28;20107;-85
2022/08/21 02:00:33;;;;;;;9.57;8.52;;;;;;;14.19;83.14;101476.56;5111003;28;20031;-86
2022/08/21 02:02:59;;;;;;;8.57;7.68;;;;;;;14.13;83.12;101473.38;5104051;28;20069;-87
2022/08/21 02:05:24;;;;;;;10.57;7.80;;;;;;;14.12;83.27;101485.00;5117277;28;20020;-88
2022/08/21 02:07:53;;;;;;;11.23;7.60;;;;;;;14.12;83.60;101482.34;5118718;28;20087;-88
2022/08/21 02:10:23;;;;;;;10.73;8.02;;;;;;;14.08;83.47;101473.59;5113170;28;20153;-87
2022/08/21 02:12:49;;;;;;;9.32;7.50;;;;;;;14.06;83.76;101480.00;5116093;28;20020;-88
2022/08/21 02:15:15;;;;;;;10.88;7.93;;;;;;;13.94;83.99;101466.34;5105544;28;20020;-87
2022/08/21 02:17:46;;;;;;;12.32;7.75;;;;;;;13.96;84.32;101474.28;5102008;28;20036;-87
2022/08/21 02:20:22;;;;;;;10.00;8.23;;;;;;;13.92;84.43;101468.25;5114935;28;20089;-87
2022/08/21 02:22:48;;;;;;;8.57;7.47;;;;;;;13.90;84.42;101470.13;5096654;28;20031;-87
2022/08/21 02:25:13;;;;;;;10.57;7.88;;;;;;;13.92;84.30;101470.94;5098489;28;20046;-87
2022/08/21 02:27:42;;;;;;;11.20;8.30;;;;;;;13.89;84.38;101473.78;5096919;28;20093;-87
2022/08/21 02:30:11;;;;;;;10.63;7.80;;;;;;;13.81;84.83;101465.28;5107627;28;20035;-87
2022/08/21 02:32:36;;;;;;;9.57;8.57;;;;;;;13.80;84.89;101474.28;5109793;28;20066;-87
2022/08/21 02:35:03;;;;;;;12.57;8.70;;;;;;;13.76;84.86;101470.03;5095923;28;20012;-87
2022/08/21 02:37:28;;;;;;;11.02;9.40;;;;;;;13.73;85.38;101461.31;5103748;28;20055;-86
2022/08/21 02:39:53;;;;;;;12.60;10.32;;;;;;;13.73;85.33;101455.97;5110209;28;20087;-88
2022/08/21 02:42:19;;;;;;;11.02;9.90;;;;;;;13.66;85.04;101458.94;5108850;28;20019;-87
2022/08/21 02:44:44;;;;;;;12.50;10.27;;;;;;;13.70;85.60;101462.31;5102249;28;20118;-86
2022/08/21 02:47:09;;;;;;;11.52;9.98;;;;;;;13.69;85.52;101471.31;5110181;28;20594;-87
2022/08/21 02:49:35;;;;;;;13.85;10.45;;;;;;;13.66;85.65;101472.31;5096800;28;20500;-88
2022/08/21 02:52:00;;;;;;;11.18;10.02;;;;;;;13.65;85.62;101470.59;5100366;28;20020;-88
2022/08/21 02:54:25;;;;;;;14.10;10.25;;;;;;;13.64;85.67;101473.38;5107430;28;20470;-87
2022/08/21 02:56:51;;;;;;;12.55;10.38;;;;;;;13.62;85.58;101470.75;5109249;28;20054;-87
2022/08/21 02:59:16;;;;;;;12.07;10.85;;;;;;;13.59;85.67;101470.09;5098059;28;20043;-88
2022/08/21 03:01:42;;;;;;;13.68;10.75;;;;;;;13.65;85.63;101472.41;5102449;28;20031;-87
2022/08/21 03:04:07;;;;;;;12.60;11.27;;;;;;;13.60;86.01;101466.47;5107349;28;20024;-86
2022/08/21 03:06:33;;;;;;;17.00;10.75;;;;;;;13.61;85.96;101468.19;5109680;28;20101;-86
2022/08/21 03:08:59;;;;;;;16.58;11.35;;;;;;;13.59;86.26;101467.41;5108845;28;20023;-86
2022/08/21 03:11:26;;;;;;;11.68;10.18;;;;;;;13.55;85.95;101453.34;5108120;28;20019;-88
2022/08/21 03:13:51;;;;;;;15.15;10.57;;;;;;;13.56;86.04;101459.53;5112630;28;20077;-87
2022/08/21 03:16:18;;;;;;;14.88;11.10;;;;;;;13.58;86.93;101465.66;5100359;28;20460;-87
2022/08/21 03:18:43;;;;;;;12.57;11.05;;;;;;;13.53;86.40;101457.03;5110187;28;20063;-86
2022/08/21 03:21:10;;;;;;;13.48;10.80;;;;;;;13.55;86.60;101465.84;5106363;28;20058;-87
2022/08/21 03:23:36;;;;;;;14.07;11.57;;;;;;;13.53;86.63;101462.38;5104986;28;20036;-86
2022/08/21 03:26:01;;;;;;;11.98;10.30;;;;;;;13.52;86.49;101455.31;5106763;28;20028;-86
2022/08/21 03:28:27;;;;;;;15.15;11.15;;;;;;;13.49;86.38;101455.47;5092900;28;20028;-87
2022/08/21 03:30:53;;;;;;;12.25;10.98;;;;;;;13.47;86.72;101457.38;5102029;28;20066;-88
2022/08/21 03:33:19;;;;;;;14.98;10.90;;;;;;;13.41;87.06;101450.50;5109525;28;20063;-88
2022/08/21 03:35:48;;;;;;;12.68;10.43;;;;;;;13.43;87.09;101460.19;5110292;27;20048;-88
2022/08/21 03:38:14;;;;;;;14.02;11.07;;;;;;;13.44;87.19;101458.38;5103861;28;20118;-87
2022/08/21 03:40:40;;;;;;;20.70;10.45;;;;;;;13.43;87.12;101459.34;5102414;28;20119;-88
2022/08/21 03:43:08;;;;;;;14.27;10.55;;;;;;;13.43;87.64;101459.34;5103893;28;20110;-88
2022/08/21 03:45:34;;;;;;;12.98;10.82;;;;;;;13.40;87.01;101462.16;5105175;28;20027;-88
2022/08/21 03:48:03;;;;;;;13.35;10.40;;;;;;;13.40;87.64;101468.38;5105107;28;20046;-87
2022/08/21 03:50:31;;;;;;;13.43;10.07;;;;;;;13.42;87.05;101470.97;5107172;28;20020;-87
2022/08/21 03:52:58;;;;;;;16.23;10.63;;;;;;;13.35;87.48;101464.22;5100790;28;20038;-87
2022/08/21 03:55:24;;;;;;;13.88;10.63;;;;;;;13.36;87.56;101466.81;5118678;28;20020;-87
2022/08/21 03:57:49;;;;;;;14.48;10.38;;;;;;;13.33;87.45;101464.28;5116151;28;20020;-87
2022/08/21 04:00:16;;;;;;;11.20;9.73;;;;;;;13.31;87.98;101458.16;5114285;28;20059;-87
2022/08/21 04:02:43;;;;;;;10.65;9.30;;;;;;;13.31;88.04;101458.16;5108237;28;20066;-87
2022/08/21 04:05:08;;;;;;;11.77;10.00;;;;;;;13.28;87.86;101450.28;5114647;28;20061;-87
2022/08/21 04:07:35;;;;;;;13.77;9.90;;;;;;;13.25;87.87;101453.16;5110847;28;20079;-87
2022/08/21 04:10:00;;;;;;;16.98;9.98;;;;;;;13.23;88.04;101454.16;5117813;28;20039;-88
2022/08/21 04:12:25;;;;;;;13.57;9.50;;;;;;;13.16;88.18;101456.25;5119117;28;20424;-87
2022/08/21 04:14:51;;;;;;;12.38;10.13;;;;;;;13.14;88.24;101460.81;5101027;28;20077;-88
2022/08/21 04:17:17;;;;;;;13.73;9.70;;;;;;;13.07;88.14;101457.59;5105856;28;20039;-87
2022/08/21 04:19:42;;;;;;;12.80;9.77;;;;;;;13.11;88.26;101458.31;5091366;28;20576;-88
2022/08/21 04:22:07;;;;;;;13.75;9.65;;;;;;;13.07;88.40;101454.06;5098172;28;20035;-88
2022/08/21 04:24:33;;;;;;;12.13;9.80;;;;;;;13.04;88.54;101462.22;5106954;28;20104;-87
2022/08/21 04:26:58;;;;;;;14.60;9.10;;;;;;;13.00;88.51;101463.31;5108002;28;20031;-87
2022/08/21 04:29:23;;;;;;;15.27;9.05;;;;;;;12.96;88.40;101460.84;5100020;28;20071;-87
2022/08/21 04:31:49;;;;;;;10.52;8.85;;;;;;;12.96;88.80;101463.50;5104777;28;20059;-86
2022/08/21 04:34:14;;;;;;;11.98;8.88;;;;;;;12.92;88.58;101467.28;5105122;28;20031;-86
2022/08/21 04:36:39;;;;;;;12.70;8.82;;;;;;;12.94;89.10;101469.84;5106393;28;20053;-87
2022/08/21 04:39:05;;;;;;;12.82;8.55;;;;;;;12.96;88.25;101470.66;5098144;28;20015;-87
2022/08/21 04:41:30;;;;;;;14.45;8.80;;;;;;;12.90;88.65;101465.59;5093351;28;20118;-87
2022/08/21 04:43:56;;;;;;;13.80;8.10;;;;;;;12.94;88.76;101484.06;5092475;28;20035;-87
2022/08/21 04:46:22;;;;;;;10.23;8.25;;;;;;;12.91;88.70;101476.22;5105508;28;20066;-88
2022/08/21 04:48:48;;;;;;;15.75;8.30;;;;;;;12.90;88.77;101470.94;5110032;28;20095;-86
2022/08/21 04:51:24;;;;;;;12.75;7.85;;;;;;;12.86;88.81;101472.91;5095075;28;20036;-87
2022/08/21 04:53:55;;;;;;;13.38;8.07;;;;;;;12.89;88.93;101483.44;5103595;28;20043;-87
2022/08/21 04:56:20;;;;;;;11.68;8.25;;;;;;;12.92;89.17;101485.97;5101819;28;20027;-86
2022/08/21 04:58:48;;;;;;;12.27;7.72;;;;;;;12.91;89.24;101476.22;5104934;28;20381;-87
2022/08/21 05:01:18;;;;;;;11.80;7.60;;;;;;;12.94;88.56;101484.06;5101333;28;20551;-86
2022/08/21 05:03:45;;;;;;;10.75;7.30;;;;;;;12.94;89.14;101489.41;5101007;28;20062;-87
2022/08/21 05:06:14;;;;;;;15.65;8.18;;;;;;;12.93;89.01;101485.03;5104534;28;20031;-87
2022/08/21 05:08:43;;;;;;;13.48;8.27;;;;;;;12.95;89.45;101484.94;5097136;28;20032;-87
2022/08/21 05:11:09;;;;;;;13.13;7.97;;;;;;;12.94;89.04;101483.22;5109630;28;20024;-87
2022/08/21 05:13:35;;;;;;;12.25;7.93;;;;;;;12.96;89.28;101484.88;5100466;28;20032;-88
2022/08/21 05:16:00;;;;;;;12.25;7.57;;;;;;;12.99;89.50;101485.66;5095924;28;20442;-88
2022/08/21 05:18:25;;;;;;;11.93;7.20;;;;;;;12.98;89.46;101478.59;5099325;28;20024;-88
2022/08/21 05:20:51;;;;;;;12.27;7.40;;;;;;;13.03;89.69;101489.91;5096832;28;20134;-87
2022/08/21 05:23:16;;;;;;;12.18;8.13;;;;;;;13.04;89.61;101494.28;5106132;28;20042;-88
2022/08/21 05:25:43;;;;;;;11.27;7.65;;;;;;;13.06;89.45;101493.28;5099159;28;20050;-89
2022/08/21 05:28:09;;;;;;;16.02;7.60;;;;;;;13.09;89.29;101497.63;5101726;28;20045;-89
2022/08/21 05:30:36;;;;;;;13.25;7.65;;;;;;;13.13;88.90;101500.06;5100322;28;20129;-88
2022/08/21 05:33:04;;;;;;;11.27;7.13;;;;;;;13.13;89.25;101488.50;5115712;28;20110;-88
2022/08/21 05:35:30;;;;;;;14.15;7.15;;;;;;;13.19;89.03;101496.19;5102849;28;20442;-88
2022/08/21 05:37:56;;;;;;;12.40;7.28;;;;;;;13.21;89.13;101491.66;5110254;28;20322;-87
2022/08/21 05:40:23;;;;;;;13.35;7.38;;;;;;;13.29;89.00;101484.09;5097051;28;20479;-89
2022/08/21 05:42:53;;;;;;;13.65;7.63;;;;;;;13.48;88.76;101507.22;5102462;28;20058;-87
2022/08/21 05:45:18;;;;;;;15.15;6.88;;;;;;;13.71;87.56;101506.88;5108819;28;20135;-87
2022/08/21 05:47:43;;;;;;;11.20;6.65;;;;;;;13.85;86.88;101493.63;5105255;28;20031;-86
2022/08/21 05:50:09;;;;;;;9.18;5.63;;;;;;;14.12;85.69;101498.41;5100433;28;20027;-88
2022/08/21 05:52:34;;;;;;;10.15;5.72;;;;;;;14.24;85.05;101511.09;5106025;28;20033;-89
2022/08/21 05:55:00;;;;;;;12.30;6.10;;;;;;;14.42;84.71;101496.69;5098283;28;20463;-89
2022/08/21 05:57:26;;;;;;;12.60;6.03;;;;;;;14.63;84.58;101502.69;5094371;28;20020;-91
2022/08/21 05:59:51;;;;;;;9.57;5.80;;;;;;;14.76;83.25;101502.84;5095732;28;20031;-90
2022/08/21 06:02:18;;;;;;;11.02;5.57;;;;;;;15.00;82.49;101511.25;5111993;28;20023;-89
2022/08/21 06:04:44;;;;;;;9.95;5.32;;;;;;;15.17;81.62;101502.19;5100175;28;20062;-88
2022/08/21 06:07:09;;;;;;;8.95;5.10;;;;;;;15.34;80.37;101504.75;5098557;28;20032;-88
2022/08/21 06:09:35;;;;;;;9.00;4.75;;;;;;;15.40;79.89;101503.53;5101710;28;20031;-88
2022/08/21 06:12:09;;;;;;;9.60;4.90;;;;;;;15.45;79.46;101504.09;5110497;28;20032;-89
2022/08/21 06:14:35;;;;;;;12.48;4.78;;;;;;;15.52;78.63;101500.09;5111710;28;20492;-87
2022/08/21 06:17:05;;;;;;;11.10;4.90;;;;;;;15.80;78.22;101514.50;5111235;28;20064;-89
2022/08/21 06:19:31;;;;;;;10.32;5.07;;;;;;;16.01;77.92;101515.00;5107182;28;20127;-87
2022/08/21 06:21:57;;;;;;;8.30;4.22;;;;;;;16.17;77.08;101508.53;5100959;28;20119;-88
2022/08/21 06:24:22;;;;;;;7.20;4.53;;;;;;;16.29;77.05;101506.91;5113556;28;20028;-91
2022/08/21 06:26:47;;;;;;;8.90;4.45;;;;;;;16.46;75.75;101503.13;5105690;28;20473;-90
2022/08/21 06:29:16;;;;;;;6.85;4.30;;;;;;;16.59;76.17;101497.81;5106176;27;20035;-88
2022/08/21 06:31:41;;;;;;;8.63;3.88;;;;;;;16.80;74.66;101509.84;5105103;28;20154;-89
2022/08/21 06:34:07;;;;;;;10.75;3.97;;;;;;;16.91;74.47;101501.94;5099762;28;20169;-88
2022/08/21 06:36:32;;;;;;;9.65;4.07;;;;;;;16.99;74.11;101511.34;5095647;28;20142;-86
2022/08/21 06:38:57;;;;;;;11.73;4.57;;;;;;;16.99;72.68;101503.28;5096008;28;20035;-89
2022/08/21 06:41:22;;;;;;;11.05;5.47;;;;;;;17.04;72.70;101506.50;5103273;28;20092;-86
2022/08/21 06:43:48;;;;;;;14.48;4.57;;;;;;;17.25;73.00;101505.03;5096303;28;20033;-84
2022/08/21 06:46:13;;;;;;;12.05;4.53;;;;;;;17.48;72.11;101498.09;5102423;28;20039;-88
2022/08/21 06:48:38;;;;;;;16.92;4.43;;;;;;;17.64;71.51;101496.06;5099092;28;20484;-89
2022/08/21 06:51:04;;;;;;;7.93;3.80;;;;;;;17.78;71.48;101495.09;5098845;28;20030;-88
2022/08/21 06:53:29;;;;;;;11.75;4.70;;;;;;;17.76;70.55;101497.03;5104538;28;20036;-90
2022/08/21 06:55:55;;;;;;;9.23;4.47;;;;;;;17.79;70.40;101514.81;5092426;28;20024;-85
2022/08/21 06:58:20;;;;;;;9.88;4.50;;;;;;;17.95;70.18;101510.06;5107970;28;20019;-88
2022/08/21 07:00:49;;;;;;;8.07;4.30;;;;;;;18.16;70.05;101504.97;5108626;28;20030;-88
2022/08/21 07:03:23;;;;;;;9.40;3.65;;;;;;;18.31;68.78;101509.25;5110207;28;20020;-87
2022/08/21 07:05:49;;;;;;;10.50;3.92;;;;;;;18.41;69.78;101502.22;5108285;28;20039;-83
2022/08/21 07:08:14;;;;;;;10.43;3.80;;;;;;;18.77;69.13;101510.41;5103123;28;20066;-87
2022/08/21 07:10:39;;;;;;;13.57;3.90;;;;;;;19.04;68.26;101504.78;5093513;28;20040;-84
2022/08/21 07:13:05;;;;;;;8.63;3.72;;;;;;;19.32;66.63;101509.78;5106426;28;20119;-85
2022/08/21 07:15:31;;;;;;;10.93;3.90;;;;;;;19.72;67.37;101500.44;5099468;28;20024;-85
2022/08/21 07:17:58;;;;;;;10.75;3.70;;;;;;;19.89;64.11;101492.69;5100672;28;20043;-86
2022/08/21 07:20:23;;;;;;;8.80;3.83;;;;;;;20.13;64.13;101495.28;5098471;28;20382;-86
2022/08/21 07:22:49;;;;;;;10.20;3.78;;;;;;;20.46;64.16;101498.06;5109335;28;20039;-87
2022/08/21 07:25:14;;;;;;;10.88;3.78;;;;;;;20.99;61.13;101492.78;5105227;28;20429;-86
2022/08/21 07:27:39;;;;;;;9.40;3.45;;;;;;;21.18;60.78;101495.63;5105184;28;20028;-85
2022/08/21 07:30:05;;;;;;;9.98;3.38;;;;;;;21.21;61.20;101508.06;5104681;28;20036;-88
2022/08/21 07:32:31;;;;;;;9.32;3.28;;;;;;;21.23;60.82;101503.34;5109887;28;20035;-87
2022/08/21 07:34:56;;;;;;;10.50;3.30;;;;;;;21.13;60.59;101490.59;5106425;28;20117;-85
2022/08/21 07:37:22;;;;;;;8.88;3.13;;;;;;;21.12;60.47;101501.56;5109265;27;20026;-86
2022/08/21 07:39:48;;;;;;;6.82;2.92;;;;;;;21.11;61.39;101495.31;5099327;28;20024;-85
2022/08/21 07:42:14;;;;;;;11.93;3.58;;;;;;;20.88;61.11;101482.84;5096596;28;20774;-87
2022/08/21 07:44:40;;;;;;;8.57;3.30;;;;;;;20.68;62.46;101500.75;5092335;28;20062;-87
2022/08/21 07:47:05;;;;;;;13.15;4.18;;;;;;;20.28;63.31;101504.00;5095459;28;20048;-88
2022/08/21 07:49:30;;;;;;;12.45;3.65;;;;;;;20.29;64.26;101507.56;5097104;28;20020;-87
2022/08/21 07:51:56;;;;;;;9.32;2.92;;;;;;;21.08;63.08;101494.69;5109513;28;20030;-88
2022/08/21 07:54:21;;;;;;;12.25;3.40;;;;;;;22.01;59.68;101502.84;5091850;28;20564;-89
2022/08/21 07:56:47;;;;;;;11.05;3.05;;;;;;;22.68;57.53;101487.78;5098418;28;20472;-89
2022/08/21 07:59:12;;;;;;;9.85;3.63;;;;;;;23.31;55.81;101499.09;5106745;28;20035;-88
2022/08/21 08:01:38;;;;;;;9.05;2.72;;;;;;;23.88;55.04;101495.56;5098829;28;20024;-89
2022/08/21 08:04:03;;;;;;;7.53;2.78;;;;;;;24.07;52.98;101495.47;5108069;28;20020;-89
2022/08/21 08:06:29;;;;;;;7.82;2.53;;;;;;;24.06;52.57;101486.47;5101551;28;20040;-86
2022/08/21 08:08:54;;;;;;;9.57;2.63;;;;;;;24.12;54.71;101495.91;5100383;28;20040;-88
2022/08/21 08:11:19;;;;;;;8.38;2.83;;;;;;;24.60;51.46;101497.50;5106767;28;20039;-87
2022/08/21 08:13:50;;;;;;;7.80;2.30;;;;;;;24.63;51.15;101502.66;5108561;28;20523;-88
2022/08/21 08:16:16;;;;;;;9.77;2.58;;;;;;;25.22;50.02;101493.03;5109464;28;20573;-89
2022/08/21 08:18:42;;;;;;;9.55;3.00;;;;;;;25.32;48.83;101493.78;5092324;28;20026;-88
2022/08/21 08:21:09;;;;;;;9.63;2.33;;;;;;;25.42;48.72;101506.47;5102406;28;20411;-88
2022/08/21 08:23:35;;;;;;;6.40;2.10;;;;;;;25.36;48.75;101498.91;5100800;28;20031;-89
2022/08/21 08:26:02;;;;;;;9.50;2.58;;;;;;;25.80;47.82;101497.91;5095551;28;20024;-87
2022/08/21 08:28:28;;;;;;;6.15;2.75;;;;;;;25.90;46.07;101502.38;5094477;28;20077;-90
2022/08/21 08:30:54;;;;;;;9.27;2.28;;;;;;;26.06;47.78;101497.00;5106665;28;20479;-89
2022/08/21 08:33:19;;;;;;;5.72;2.35;;;;;;;26.68;45.44;101492.13;5097250;28;20023;-89
2022/08/21 08:35:48;;;;;;;5.35;2.00;;;;;;;27.18;44.22;101501.28;5091807;28;20039;-90
2022/08/21 08:38:18;;;;;;;8.45;2.70;;;;;;;26.88;43.76;101494.53;5094570;28;20558;-89
2022/08/21 08:41:18;;;;;;;9.52;2.47;;;;;;;26.66;46.35;101483.25;5096035;28;20087;-89
2022/08/21 08:43:51;;;;;;;9.48;2.63;;;;;;;26.81;46.64;101483.44;5096703;28;20031;-89
2022/08/21 08:46:21;;;;;;;6.70;2.28;;;;;;;27.79;44.13;101488.91;5093816;28;20057;-90
2022/08/21 08:48:56;;;;;;;9.13;2.70;;;;;;;28.38;42.25;101481.16;5098321;28;20076;-92
2022/08/21 08:51:46;;;;;;;6.28;2.30;;;;;;;28.79;43.14;101484.50;5106185;28;20020;-91
2022/08/21 08:54:31;;;;;;;9.02;2.47;;;;;;;28.00;41.56;101480.97;5105528;28;20027;-92
2022/08/21 08:56:58;;;;;;;8.82;2.63;;;;;;;26.89;43.43;101468.97;5095120;28;20370;-91
2022/08/21 08:59:37;;;;;;;10.85;2.83;;;;;;;27.65;43.36;101476.78;5092861;28;20046;-91
2022/08/21 09:02:05;;;;;;;9.45;2.38;;;;;;;27.79;40.97;101467.03;5104770;28;20035;-91
2022/08/21 09:04:30;;;;;;;7.45;2.17;;;;;;;27.56;40.99;101465.00;5102389;28;20020;-90
2022/08/21 09:07:15;;;;;;;5.68;2.17;;;;;;;26.52;44.38;101473.84;5103291;28;20031;-92
2022/08/21 09:10:01;;;;;;;6.63;2.67;;;;;;;26.25;44.83;101461.28;5104119;28;20101;-89
2022/08/21 09:12:39;;;;;;;9.07;2.90;;;;;;;27.11;43.01;101465.56;5099619;28;20021;-90
2022/08/21 09:15:25;;;;;;;7.22;2.60;;;;;;;28.47;42.09;101460.09;5109813;28;20069;-92
2022/08/21 09:18:28;;;;;;;7.43;2.08;;;;;;;28.21;40.38;101463.09;5101230;28;20040;-89
2022/08/21 09:21:02;;;;;;;10.23;2.30;;;;;;;27.41;41.29;101474.09;5112462;28;20036;-90
2022/08/21 09:23:43;;;;;;;7.38;1.92;;;;;;;26.64;43.18;101463.47;5110499;28;20102;-89
2022/08/21 09:26:14;;;;;;;7.20;2.10;;;;;;;26.49;42.87;101457.78;5106798;28;20055;-91
2022/08/21 09:28:41;;;;;;;7.25;2.10;;;;;;;27.18;41.24;101452.94;5105580;28;20032;-89
2022/08/21 09:31:23;;;;;;;6.97;2.30;;;;;;;28.78;39.63;101460.91;5119991;28;20024;-91
2022/08/21 09:33:49;;;;;;;7.13;1.90;;;;;;;29.52;36.91;101460.28;5113965;28;20580;-89
2022/08/21 09:36:25;;;;;;;5.82;2.33;;;;;;;30.17;36.64;101462.28;5106683;28;20030;-91
2022/08/21 09:38:54;;;;;;;9.73;2.42;;;;;;;30.90;34.70;101463.16;5099266;28;20031;-88
2022/08/21 09:41:27;;;;;;;5.43;2.13;;;;;;;32.01;33.50;101471.63;5101196;28;20028;-90
2022/08/21 09:43:53;;;;;;;6.82;1.80;;;;;;;32.87;30.69;101465.59;5105732;28;20477;-92
2022/08/21 09:46:24;;;;;;;6.65;2.00;;;;;;;33.12;30.75;101466.69;5105900;28;20023;-92
2022/08/21 09:48:53;;;;;;;5.32;1.80;;;;;;;33.39;28.36;101470.28;5100497;28;20468;-92
2022/08/21 09:51:29;;;;;;;5.80;1.60;;;;;;;33.63;29.60;101462.44;5097025;28;20099;-89
2022/08/21 09:54:07;;;;;;;4.78;1.60;;;;;;;33.76;28.75;101467.91;5099358;28;20514;-91
2022/08/21 09:59:39;;;;;;;5.22;1.48;;;;;;;32.87;28.64;101457.31;5101295;28;20055;-89
2022/08/21 10:02:25;;;;;;;7.82;2.05;;;;;;;33.07;30.50;101458.22;5097500;28;20020;-90
2022/08/21 10:04:53;;;;;;;7.78;2.33;;;;;;;32.49;30.74;101463.38;5095469;28;20743;-91
2022/08/21 10:07:22;;;;;;;9.88;3.20;;;;;;;31.63;32.54;101462.91;5103226;28;20058;-92
2022/08/21 10:10:03;;;;;;;9.75;5.50;;;;;;;31.34;33.13;101455.72;5101480;27;20027;-90
2022/08/21 10:12:56;;;;;;;7.57;2.75;;;;;;;32.26;31.91;101457.34;5103673;27;20071;-91
2022/08/21 10:15:59;;;;;;;5.32;1.98;;;;;;;32.48;31.18;101465.28;5105713;28;20031;-92
2022/08/21 10:18:42;;;;;;;5.03;1.60;;;;;;;33.17;29.37;101461.38;5107195;27;20040;-92
2022/08/21 10:21:15;;;;;;;8.00;1.80;;;;;;;33.61;29.38;101457.13;5104176;27;20059;-91
2022/08/21 10:24:01;;;;;;;7.43;2.00;;;;;;;34.98;29.47;101459.72;5107922;27;20038;-91
2022/08/21 10:26:55;;;;;;;5.03;1.60;;;;;;;34.76;27.84;101453.69;5104698;28;20472;-91
2022/08/21 10:29:41;;;;;;;5.53;1.70;;;;;;;34.43;28.23;101460.25;5114855;27;20035;-90
2022/08/21 10:32:35;;;;;;;4.30;1.45;;;;;;;34.53;26.66;101463.44;5101598;27;20036;-91
2022/08/21 10:35:22;;;;;;;5.97;1.55;;;;;;;32.47;29.58;101465.47;5101648;27;20507;-91
2022/08/21 10:37:55;;;;;;;4.85;1.75;;;;;;;30.89;31.14;101457.84;5103560;27;21101;-94
2022/08/21 10:40:40;;;;;;;5.38;1.88;;;;;;;30.57;33.53;101448.19;5104904;27;20027;-93
2022/08/21 10:43:37;;;;;;;4.10;1.70;;;;;;;30.13;33.25;101463.69;5111961;27;20104;-92
2022/08/21 10:46:18;;;;;;;6.22;1.70;;;;;;;29.53;33.64;101459.22;5114196;27;20100;-90
2022/08/21 10:48:53;;;;;;;5.68;1.90;;;;;;;29.71;32.41;101457.00;5118427;27;20016;-94
2022/08/21 10:51:40;;;;;;;5.35;1.90;;;;;;;29.26;33.65;101456.09;5112374;28;20019;-93
2022/08/21 10:54:17;;;;;;;5.40;1.50;;;;;;;28.56;34.76;101447.19;5106938;27;20113;-84
2022/08/21 10:56:46;;;;;;;5.60;1.83;;;;;;;28.71;35.04;101462.66;5115895;27;20032;-93
2022/08/21 10:59:11;;;;;;;6.13;1.67;;;;;;;29.25;34.28;101454.34;5111126;27;20071;-91
2022/08/21 11:01:52;;;;;;;4.60;1.70;;;;;;;28.91;35.12;101451.22;5105088;28;20084;-93
2022/08/21 11:04:32;;;;;;;5.78;2.08;;;;;;;28.46;35.72;101452.88;5107648;27;20081;-91
2022/08/21 11:07:06;;;;;;;6.55;2.38;;;;;;;28.49;35.89;101447.06;5109690;27;20042;-87
2022/08/21 11:09:43;;;;;;;5.85;1.75;;;;;;;28.70;35.24;101436.28;5107807;27;20381;-92
2022/08/21 11:12:33;;;;;;;6.75;2.40;;;;;;;29.20;35.32;101453.22;5099361;28;20053;-89
2022/08/21 11:15:11;;;;;;;4.28;1.90;;;;;;;29.39;35.06;101455.44;5106769;27;20241;-91
2022/08/21 11:17:44;;;;;;;5.35;2.40;;;;;;;29.86;33.63;101456.16;5104877;27;20612;-87
2022/08/21 11:20:17;;;;;;;4.15;2.22;;;;;;;30.33;32.83;101446.66;5104567;28;20362;-89
2022/08/21 11:23:25;;;;;;;7.32;1.90;;;;;;;31.28;32.71;101448.25;5101055;27;20134;-88
2022/08/21 11:26:04;;;;;;;21.88;2.88;;;;;;;31.63;31.12;101447.25;5102240;27;20034;-88
2022/08/21 11:28:35;;;;;;;38.25;5.65;;;;;;;32.24;31.10;101452.03;5108352;28;20771;-88
2022/08/21 11:31:03;;;;;;;5.40;2.30;;;;;;;32.54;29.05;101449.81;5109529;27;20036;-88